createdAt,value
2023-01-09T00:01:33.907Z,2.53
2023-01-09T00:04:04.560Z,2.63
2023-01-09T00:06:32.661Z,2.50
2023-01-09T00:09:00.759Z,2.50
2023-01-09T00:11:29.075Z,2.33
2023-01-09T00:13:57.435Z,2.07
2023-01-09T00:16:25.824Z,2.30
2023-01-09T00:18:54.193Z,2.40
2023-01-09T00:21:23.827Z,2.57
2023-01-09T00:23:55.275Z,2.00
2023-01-09T00:26:23.421Z,2.20
2023-01-09T00:28:54.097Z,2.10
2023-01-09T00:31:24.399Z,2.40
2023-01-09T00:34:00.625Z,2.40
2023-01-09T00:36:30.467Z,1.90
2023-01-09T00:38:58.827Z,2.10
2023-01-09T00:41:32.688Z,2.00
2023-01-09T00:44:11.514Z,2.57
2023-01-09T00:46:45.181Z,2.17
2023-01-09T00:49:15.623Z,2.00
2023-01-09T00:51:45.067Z,2.03
2023-01-09T00:54:17.358Z,2.20
2023-01-09T00:56:45.777Z,2.20
2023-01-09T00:59:13.920Z,2.23
2023-01-09T01:01:42.305Z,2.00
2023-01-09T01:04:27.873Z,1.80
2023-01-09T01:07:14.726Z,2.30
2023-01-09T01:09:42.808Z,2.10
2023-01-09T01:12:10.893Z,2.40
2023-01-09T01:14:40.542Z,2.30
2023-01-09T01:17:09.236Z,2.60
2023-01-09T01:19:38.093Z,2.70
2023-01-09T01:22:07.520Z,2.80
2023-01-09T01:24:35.563Z,2.97
2023-01-09T01:27:03.692Z,2.47
2023-01-09T01:29:31.728Z,2.73
2023-01-09T01:31:59.828Z,2.30
2023-01-09T01:34:29.499Z,2.10
2023-01-09T01:36:57.588Z,2.23
2023-01-09T01:39:27.048Z,1.90
2023-01-09T01:41:55.137Z,2.00
2023-01-09T01:45:03.274Z,1.83
2023-01-09T01:47:41.696Z,2.13
2023-01-09T01:50:20.364Z,1.73
2023-01-09T01:52:55.431Z,1.90
2023-01-09T01:55:25.872Z,1.90
2023-01-09T01:58:01.385Z,2.00
2023-01-09T02:00:34.901Z,1.83
2023-01-09T02:03:03.733Z,1.87
2023-01-09T02:05:32.369Z,1.80
2023-01-09T02:08:00.419Z,1.80
2023-01-09T02:10:30.002Z,1.70
2023-01-09T02:12:58.204Z,2.23
2023-01-09T02:15:29.061Z,2.17
2023-01-09T02:18:32.408Z,2.00
2023-01-09T02:21:05.614Z,2.00
2023-01-09T02:24:29.414Z,2.03
2023-01-09T02:27:54.046Z,1.80
2023-01-09T02:30:40.956Z,2.13
2023-01-09T02:33:49.914Z,2.57
2023-01-09T02:36:29.942Z,1.70
2023-01-09T02:39:24.232Z,1.97
2023-01-09T02:42:02.127Z,1.90
2023-01-09T02:44:33.880Z,2.00
2023-01-09T02:47:06.270Z,1.90
2023-01-09T02:49:39.440Z,2.10
2023-01-09T02:52:38.480Z,1.83
2023-01-09T02:55:19.522Z,2.10
2023-01-09T02:58:04.951Z,1.90
2023-01-09T03:00:46.584Z,2.00
2023-01-09T03:03:28.170Z,2.23
2023-01-09T03:06:07.838Z,2.20
2023-01-09T03:08:42.685Z,1.90
2023-01-09T03:11:12.192Z,2.13
2023-01-09T03:13:47.526Z,1.70
2023-01-09T03:16:22.375Z,2.20
2023-01-09T03:18:56.958Z,2.23
2023-01-09T03:21:27.018Z,2.50
2023-01-09T03:23:58.637Z,2.40
2023-01-09T03:26:29.069Z,2.63
2023-01-09T03:28:58.048Z,2.20
2023-01-09T03:31:26.443Z,2.10
2023-01-09T03:33:56.052Z,2.30
2023-01-09T03:36:25.671Z,2.30
2023-01-09T03:38:53.774Z,2.40
2023-01-09T03:41:21.976Z,2.50
2023-01-09T03:43:50.107Z,2.73
2023-01-09T03:46:18.656Z,2.70
2023-01-09T03:48:46.800Z,2.70
2023-01-09T03:51:16.209Z,2.63
2023-01-09T03:53:44.282Z,2.90
2023-01-09T03:56:12.479Z,2.33
2023-01-09T03:58:40.519Z,2.77
2023-01-09T04:01:12.589Z,3.00
2023-01-09T04:03:41.165Z,3.37
2023-01-09T04:06:09.300Z,3.13
2023-01-09T04:08:39.036Z,2.90
2023-01-09T04:11:07.570Z,3.00
2023-01-09T04:13:35.679Z,2.73
2023-01-09T04:16:03.759Z,3.00
2023-01-09T04:18:31.971Z,2.40
2023-01-09T04:21:00.039Z,2.70
2023-01-09T04:23:28.123Z,3.00
2023-01-09T04:25:57.540Z,3.10
2023-01-09T04:28:25.672Z,3.17
2023-01-09T04:30:53.707Z,2.80
2023-01-09T04:33:21.787Z,2.90
2023-01-09T04:35:49.811Z,3.30
2023-01-09T04:38:18.259Z,3.50
2023-01-09T04:40:49.051Z,3.70
2023-01-09T04:43:18.799Z,3.50
2023-01-09T04:45:46.961Z,3.80
2023-01-09T04:48:15.151Z,3.17
2023-01-09T04:50:43.337Z,3.67
2023-01-09T04:53:11.381Z,3.27
2023-01-09T04:55:41.200Z,3.80
2023-01-09T04:58:09.773Z,3.90
2023-01-09T05:00:39.190Z,3.30
2023-01-09T05:03:07.211Z,3.27
2023-01-09T05:05:35.655Z,3.73
2023-01-09T05:08:03.725Z,3.00
2023-01-09T05:10:31.779Z,3.03
2023-01-09T05:12:59.806Z,2.40
2023-01-09T05:15:28.276Z,2.30
2023-01-09T05:17:57.677Z,2.53
2023-01-09T05:20:25.746Z,2.30
2023-01-09T05:22:53.753Z,2.00
2023-01-09T05:25:21.783Z,2.17
2023-01-09T05:27:49.806Z,1.80
2023-01-09T05:30:19.112Z,1.57
2023-01-09T05:32:47.242Z,1.47
2023-01-09T05:35:16.832Z,1.40
2023-01-09T05:37:44.921Z,1.30
2023-01-09T05:40:14.396Z,1.40
2023-01-09T05:42:44.870Z,1.20
2023-01-09T05:45:13.211Z,1.20
2023-01-09T05:47:41.564Z,1.60
2023-01-09T05:50:11.540Z,1.47
2023-01-09T05:52:41.259Z,1.37
2023-01-09T05:55:10.062Z,1.40
2023-01-09T05:57:38.135Z,1.40
2023-01-09T06:00:08.227Z,1.10
2023-01-09T06:02:36.384Z,1.27
2023-01-09T06:05:04.748Z,1.50
2023-01-09T06:07:34.771Z,1.50
2023-01-09T06:10:04.676Z,1.90
2023-01-09T06:12:32.724Z,1.87
2023-01-09T06:15:00.788Z,1.80
2023-01-09T06:17:28.875Z,1.80
2023-01-09T06:19:57.357Z,2.00
2023-01-09T06:22:25.561Z,2.03
2023-01-09T06:24:54.096Z,1.97
2023-01-09T06:27:23.507Z,2.30
2023-01-09T06:29:51.535Z,2.67
2023-01-09T06:32:19.607Z,2.47
2023-01-09T06:34:47.657Z,2.90
2023-01-09T06:37:15.834Z,3.13
2023-01-09T06:39:43.856Z,3.10
2023-01-09T06:42:11.946Z,3.10
2023-01-09T06:44:41.328Z,3.10
2023-01-09T06:47:09.386Z,3.00
2023-01-09T06:49:37.424Z,3.10
2023-01-09T06:52:07.631Z,3.80
2023-01-09T06:54:36.426Z,3.40
2023-01-09T06:57:04.565Z,3.93
2023-01-09T06:59:32.621Z,3.70
2023-01-09T07:02:02.028Z,4.00
2023-01-09T07:04:30.115Z,3.97
2023-01-09T07:06:58.183Z,5.15
2023-01-09T07:09:26.242Z,4.47
2023-01-09T07:11:54.262Z,4.43
2023-01-09T07:14:22.291Z,4.40
2023-01-09T07:16:50.315Z,4.67
2023-01-09T07:19:19.735Z,5.90
2023-01-09T07:21:47.781Z,4.23
2023-01-09T07:24:15.828Z,5.10
2023-01-09T07:26:43.999Z,5.60
2023-01-09T07:29:13.007Z,5.13
2023-01-09T07:31:41.072Z,4.80
2023-01-09T07:34:09.225Z,4.83
2023-01-09T07:36:38.967Z,4.90
2023-01-09T07:39:06.983Z,5.13
2023-01-09T07:41:35.027Z,4.80
2023-01-09T07:44:03.052Z,4.60
2023-01-09T07:46:31.200Z,4.77
2023-01-09T07:48:59.295Z,4.83
2023-01-09T07:51:27.413Z,4.83
2023-01-09T07:53:56.853Z,4.90
2023-01-09T07:56:24.941Z,6.47
2023-01-09T07:58:52.966Z,9.27
2023-01-09T08:01:21.165Z,10.27
2023-01-09T08:03:49.247Z,10.33
2023-01-09T08:06:17.343Z,10.27
2023-01-09T08:08:45.474Z,10.90
2023-01-09T08:11:14.886Z,10.07
2023-01-09T08:13:43.040Z,8.90
2023-01-09T08:16:11.090Z,8.00
2023-01-09T08:18:39.144Z,7.80
2023-01-09T08:21:07.491Z,8.30
2023-01-09T08:23:35.544Z,8.70
2023-01-09T08:26:04.081Z,7.63
2023-01-09T08:28:33.544Z,8.37
2023-01-09T08:31:01.702Z,8.87
2023-01-09T08:33:29.886Z,8.33
2023-01-09T08:35:57.956Z,8.80
2023-01-09T08:38:26.137Z,8.60
2023-01-09T08:40:54.214Z,7.87
2023-01-09T08:43:39.792Z,8.10
2023-01-09T08:46:38.105Z,8.67
2023-01-09T08:49:06.128Z,8.20
2023-01-09T08:51:34.150Z,8.50
2023-01-09T08:54:02.143Z,8.43
2023-01-09T08:56:30.173Z,8.00
2023-01-09T08:58:58.200Z,8.50
2023-01-09T09:01:27.586Z,8.00
2023-01-09T09:03:55.682Z,7.93
2023-01-09T09:06:23.785Z,8.13
2023-01-09T09:08:51.828Z,7.80
2023-01-09T09:11:19.856Z,7.70
2023-01-09T09:13:47.962Z,7.77
2023-01-09T09:16:16.068Z,6.47
2023-01-09T09:18:45.457Z,6.57
2023-01-09T09:21:13.541Z,6.13
2023-01-09T09:23:41.586Z,5.53
2023-01-09T09:26:09.649Z,6.17
2023-01-09T09:28:37.698Z,4.20
2023-01-09T09:31:06.630Z,4.53
2023-01-09T09:33:35.087Z,4.13
2023-01-09T09:36:04.928Z,3.50
2023-01-09T09:38:32.958Z,3.73
2023-01-09T09:41:44.406Z,3.23
2023-01-09T09:44:52.673Z,3.40
2023-01-09T09:47:43.267Z,2.97
2023-01-09T09:50:38.888Z,3.37
2023-01-09T09:53:18.077Z,3.00
2023-01-09T09:55:50.876Z,2.53
2023-01-09T09:58:28.708Z,2.40
2023-01-09T10:00:59.786Z,2.43
2023-01-09T10:03:34.614Z,3.40
2023-01-09T10:06:09.883Z,2.87
2023-01-09T10:08:50.881Z,2.70
2023-01-09T10:11:28.331Z,2.77
2023-01-09T10:14:08.417Z,2.60
2023-01-09T10:17:13.406Z,2.60
2023-01-09T10:20:09.263Z,2.43
2023-01-09T10:22:50.296Z,2.30
2023-01-09T10:25:31.919Z,2.33
2023-01-09T10:28:22.072Z,2.80
2023-01-09T10:30:59.300Z,2.83
2023-01-09T10:33:51.183Z,3.00
2023-01-09T10:36:39.920Z,2.63
2023-01-09T10:39:17.568Z,2.75
2023-01-09T10:41:59.896Z,2.70
2023-01-09T10:44:37.425Z,2.40
2023-01-09T10:47:16.264Z,2.80
2023-01-09T10:49:46.162Z,2.63
2023-01-09T10:52:20.403Z,2.50
2023-01-09T10:54:56.935Z,2.38
2023-01-09T10:57:43.295Z,2.60
2023-01-09T11:00:23.589Z,2.10
2023-01-09T11:02:53.106Z,2.30
2023-01-09T11:05:25.365Z,2.10
2023-01-09T11:08:00.381Z,2.10
2023-01-09T11:10:48.584Z,2.20
2023-01-09T11:13:21.915Z,2.08
2023-01-09T11:16:08.143Z,2.00
2023-01-09T11:18:39.988Z,1.65
2023-01-09T11:21:31.695Z,1.80
2023-01-09T11:24:30.908Z,1.70
2023-01-09T11:27:29.838Z,2.10
2023-01-09T11:30:26.891Z,2.00
2023-01-09T11:32:57.100Z,1.85
2023-01-09T11:35:33.715Z,1.90
2023-01-09T11:38:08.945Z,2.58
2023-01-09T11:40:50.457Z,1.80
2023-01-09T11:43:30.373Z,1.80
2023-01-09T11:46:03.864Z,2.00
2023-01-09T11:48:43.823Z,1.88
2023-01-09T11:51:22.769Z,2.00
2023-01-09T11:54:15.368Z,1.98
2023-01-09T11:56:44.542Z,1.80
2023-01-09T11:59:15.136Z,1.98
2023-01-09T12:02:38.132Z,1.87
2023-01-09T12:05:27.596Z,1.80
2023-01-09T12:08:25.389Z,1.80
2023-01-09T12:11:28.339Z,1.80
2023-01-09T12:14:20.753Z,1.85
2023-01-09T12:17:08.882Z,1.70
2023-01-09T12:20:23.312Z,1.85
2023-01-09T12:23:05.048Z,1.50
2023-01-09T12:25:50.277Z,1.90
2023-01-09T12:28:49.171Z,1.70
2023-01-09T12:31:37.043Z,1.83
2023-01-09T12:34:28.574Z,2.05
2023-01-09T12:37:26.607Z,1.70
2023-01-09T12:40:07.567Z,1.70
2023-01-09T12:42:54.292Z,1.67
2023-01-09T12:45:42.755Z,1.80
2023-01-09T12:48:31.897Z,1.60
2023-01-09T12:51:25.169Z,1.87
2023-01-09T12:54:05.141Z,2.22
2023-01-09T12:56:38.809Z,1.83
2023-01-09T12:59:30.255Z,1.70
2023-01-09T13:02:13.331Z,2.03
2023-01-09T13:04:47.873Z,2.03
2023-01-09T13:07:24.268Z,2.50
2023-01-09T13:10:00.868Z,2.50
2023-01-09T13:12:36.870Z,2.00
2023-01-09T13:15:20.467Z,2.20
2023-01-09T13:17:54.268Z,2.10
2023-01-09T13:20:29.982Z,1.30
2023-01-09T13:22:59.068Z,1.40
2023-01-09T13:25:46.631Z,1.58
2023-01-09T13:28:21.904Z,1.60
2023-01-09T13:31:20.345Z,1.70
2023-01-09T13:33:55.828Z,1.50
2023-01-09T13:36:29.019Z,1.80
2023-01-09T13:38:59.605Z,1.30
2023-01-09T13:41:49.755Z,1.50
2023-01-09T13:44:28.554Z,1.60
2023-01-09T13:47:00.368Z,1.50
2023-01-09T13:49:34.001Z,1.80
2023-01-09T13:52:05.164Z,1.48
2023-01-09T13:55:20.449Z,1.38
2023-01-09T13:58:22.516Z,1.50
2023-01-09T14:00:58.754Z,1.58
2023-01-09T14:03:33.005Z,1.58
2023-01-09T14:06:18.468Z,1.55
2023-01-09T14:08:50.319Z,1.60
2023-01-09T14:11:27.296Z,1.70
2023-01-09T14:14:20.746Z,1.67
2023-01-09T14:16:49.042Z,1.70
2023-01-09T14:19:34.699Z,1.40
2023-01-09T14:22:04.083Z,1.47
2023-01-09T14:24:42.410Z,1.63
2023-01-09T14:28:11.583Z,1.90
2023-01-09T14:31:12.901Z,1.75
2023-01-09T14:33:41.062Z,1.70
2023-01-09T14:36:22.095Z,1.75
2023-01-09T14:38:54.411Z,1.65
2023-01-09T14:41:49.043Z,2.20
2023-01-09T14:44:30.268Z,2.10
2023-01-09T14:47:07.895Z,2.00
2023-01-09T14:49:42.785Z,2.22
2023-01-09T14:52:22.960Z,2.20
2023-01-09T14:54:54.282Z,2.10
2023-01-09T14:57:28.116Z,2.03
2023-01-09T15:00:01.772Z,1.98
2023-01-09T15:02:36.393Z,1.70
2023-01-09T15:05:09.394Z,2.20
2023-01-09T15:07:45.291Z,1.70
2023-01-09T15:10:20.482Z,1.98
2023-01-09T15:12:52.520Z,2.00
2023-01-09T15:15:23.534Z,1.50
2023-01-09T15:17:58.826Z,1.70
2023-01-09T15:20:30.154Z,1.70
2023-01-09T15:23:00.674Z,1.53
2023-01-09T15:25:40.452Z,1.65
2023-01-09T15:28:27.224Z,1.80
2023-01-09T15:31:05.788Z,1.70
2023-01-09T15:33:36.527Z,2.00
2023-01-09T15:36:15.062Z,1.90
2023-01-09T15:38:44.487Z,1.63
2023-01-09T15:41:39.555Z,1.77
2023-01-09T15:44:15.162Z,1.77
2023-01-09T15:46:46.255Z,1.98
2023-01-09T15:49:16.139Z,2.05
2023-01-09T15:51:48.220Z,1.80
2023-01-09T15:54:20.804Z,2.10
2023-01-09T15:56:48.905Z,2.13
2023-01-09T15:59:27.773Z,6.80
2023-01-09T16:02:19.887Z,20.67
2023-01-09T16:04:53.885Z,16.23
2023-01-09T16:07:22.570Z,3.78
2023-01-09T16:09:52.580Z,5.57
2023-01-09T16:12:24.631Z,5.30
2023-01-09T16:14:56.890Z,5.47
2023-01-09T16:17:26.784Z,4.60
2023-01-09T16:20:13.099Z,5.60
2023-01-09T16:22:54.884Z,15.57
2023-01-09T16:25:32.358Z,12.45
2023-01-09T16:28:20.621Z,4.82
2023-01-09T16:30:55.201Z,6.32
2023-01-09T16:33:26.023Z,6.55
2023-01-09T16:35:58.308Z,8.10
2023-01-09T16:38:27.511Z,9.00
2023-01-09T16:41:22.533Z,11.07
2023-01-09T16:43:51.526Z,11.30
2023-01-09T16:46:22.587Z,21.25
2023-01-09T16:48:50.964Z,16.55
2023-01-09T16:51:23.044Z,16.37
2023-01-09T16:53:51.548Z,24.50
2023-01-09T16:56:23.819Z,10.53
2023-01-09T16:58:53.356Z,7.68
2023-01-09T17:01:22.367Z,10.80
2023-01-09T17:03:52.345Z,9.65
2023-01-09T17:06:29.237Z,12.30
2023-01-09T17:08:57.668Z,7.32
2023-01-09T17:11:31.265Z,5.50
2023-01-09T17:13:59.388Z,5.38
2023-01-09T17:16:28.888Z,6.57
2023-01-09T17:18:57.632Z,4.90
2023-01-09T17:21:30.589Z,5.63
2023-01-09T17:24:16.832Z,3.40
2023-01-09T17:27:06.844Z,4.40
2023-01-09T17:29:36.042Z,3.67
2023-01-09T17:32:04.979Z,6.53
2023-01-09T17:34:34.192Z,5.65
2023-01-09T17:37:04.669Z,5.00
2023-01-09T17:39:32.969Z,5.82
2023-01-09T17:42:01.891Z,4.40
2023-01-09T17:44:30.038Z,6.72
2023-01-09T17:46:58.100Z,6.57
2023-01-09T17:49:27.170Z,5.17
2023-01-09T17:51:55.256Z,4.88
2023-01-09T17:54:24.679Z,4.43
2023-01-09T17:56:54.105Z,4.53
2023-01-09T17:59:22.288Z,3.00
2023-01-09T18:01:50.416Z,3.20
2023-01-09T18:04:18.585Z,4.28
2023-01-09T18:06:48.196Z,2.65
2023-01-09T18:09:18.422Z,2.50
2023-01-09T18:11:48.274Z,3.05
2023-01-09T18:14:17.521Z,3.20
2023-01-09T18:16:45.996Z,2.90
2023-01-09T18:19:14.100Z,4.35
2023-01-09T18:21:42.211Z,8.93
2023-01-09T18:24:10.477Z,2.97
2023-01-09T18:26:38.620Z,4.93
2023-01-09T18:29:09.132Z,3.40
2023-01-09T18:31:37.224Z,4.97
2023-01-09T18:34:07.289Z,4.53
2023-01-09T18:36:35.449Z,3.08
2023-01-09T18:39:07.022Z,5.93
2023-01-09T18:41:35.227Z,2.30
2023-01-09T18:44:03.861Z,20.13
2023-01-09T18:46:33.285Z,2.63
2023-01-09T18:49:04.298Z,10.00
2023-01-09T18:51:35.375Z,12.03
2023-01-09T18:54:03.826Z,2.77
2023-01-09T18:56:31.892Z,3.80
2023-01-09T18:59:00.573Z,8.03
2023-01-09T19:01:30.779Z,3.40
2023-01-09T19:04:01.681Z,3.73
2023-01-09T19:06:31.180Z,2.67
2023-01-09T19:08:59.637Z,3.10
2023-01-09T19:11:28.339Z,7.50
2023-01-09T19:13:56.386Z,3.33
2023-01-09T19:16:24.662Z,3.67
2023-01-09T19:18:52.816Z,3.17
2023-01-09T19:21:26.688Z,3.33
2023-01-09T19:23:54.941Z,4.27
2023-01-09T19:26:26.264Z,3.30
2023-01-09T19:28:57.406Z,3.77
2023-01-09T19:31:28.531Z,3.70
2023-01-09T19:33:57.970Z,5.00
2023-01-09T19:36:29.392Z,4.10
2023-01-09T19:38:57.980Z,4.83
2023-01-09T19:41:26.184Z,4.63
2023-01-09T19:43:54.902Z,5.40
2023-01-09T19:46:25.197Z,4.70
2023-01-09T19:48:54.304Z,5.60
2023-01-09T19:51:23.114Z,4.77
2023-01-09T19:53:58.053Z,6.73
2023-01-09T19:56:28.895Z,7.77
2023-01-09T19:58:59.815Z,8.47
2023-01-09T20:01:31.179Z,5.87
2023-01-09T20:04:04.775Z,5.83
2023-01-09T20:06:33.289Z,5.43
2023-01-09T20:09:05.571Z,5.60
2023-01-09T20:11:35.186Z,5.10
2023-01-09T20:14:03.243Z,4.87
2023-01-09T20:16:32.343Z,5.03
2023-01-09T20:19:03.857Z,6.93
2023-01-09T20:21:32.395Z,7.90
2023-01-09T20:24:05.458Z,24.37
2023-01-09T20:26:36.064Z,14.63
2023-01-09T20:29:04.728Z,13.97
2023-01-09T20:31:33.105Z,13.33
2023-01-09T20:34:01.665Z,13.87
2023-01-09T20:36:31.649Z,12.93
2023-01-09T20:39:05.353Z,8.23
2023-01-09T20:41:33.456Z,8.30
2023-01-09T20:44:04.929Z,7.47
2023-01-09T20:46:37.926Z,7.03
2023-01-09T20:49:08.542Z,9.40
2023-01-09T20:51:38.247Z,6.80
2023-01-09T20:54:07.740Z,30.67
2023-01-09T20:56:36.805Z,14.17
2023-01-09T20:59:06.291Z,6.77
2023-01-09T21:01:35.172Z,7.10
2023-01-09T21:04:03.710Z,7.70
2023-01-09T21:06:31.882Z,9.47
2023-01-09T21:09:00.118Z,6.97
2023-01-09T21:11:29.623Z,6.83
2023-01-09T21:13:57.689Z,8.37
2023-01-09T21:16:26.149Z,9.83
2023-01-09T21:18:55.504Z,9.17
2023-01-09T21:21:27.240Z,9.07
2023-01-09T21:23:58.604Z,8.73
2023-01-09T21:26:30.496Z,8.50
2023-01-09T21:29:01.379Z,7.03
2023-01-09T21:31:34.665Z,7.07
2023-01-09T21:34:05.393Z,7.30
2023-01-09T21:36:35.118Z,6.93
2023-01-09T21:39:07.481Z,8.53
2023-01-09T21:41:55.054Z,7.80
2023-01-09T21:44:40.536Z,7.67
2023-01-09T21:47:08.623Z,7.43
2023-01-09T21:49:40.976Z,8.53
2023-01-09T21:52:09.860Z,8.40
2023-01-09T21:54:37.933Z,8.37
2023-01-09T21:57:07.407Z,10.83
2023-01-09T21:59:35.456Z,8.13
2023-01-09T22:02:03.494Z,7.20
2023-01-09T22:04:33.408Z,7.37
2023-01-09T22:07:01.488Z,7.80
2023-01-09T22:09:29.555Z,7.47
2023-01-09T22:11:57.698Z,7.80
2023-01-09T22:14:27.114Z,7.47
2023-01-09T22:16:55.179Z,8.23
2023-01-09T22:19:23.231Z,7.10
2023-01-09T22:21:51.320Z,6.77
2023-01-09T22:24:21.636Z,7.43
2023-01-09T22:26:49.993Z,6.53
2023-01-09T22:29:18.074Z,7.03
2023-01-09T22:31:47.829Z,8.77
2023-01-09T22:34:18.767Z,7.00
2023-01-09T22:36:48.148Z,6.90
2023-01-09T22:39:19.362Z,6.97
2023-01-09T22:41:52.308Z,7.13
2023-01-09T22:44:20.395Z,7.50
2023-01-09T22:46:49.783Z,6.70
2023-01-09T22:49:17.820Z,6.70
2023-01-09T22:51:45.886Z,7.00
2023-01-09T22:54:13.943Z,7.57
2023-01-09T22:56:42.035Z,8.00
2023-01-09T22:59:10.327Z,7.63
2023-01-09T23:01:38.423Z,7.43
2023-01-09T23:04:07.941Z,7.63
2023-01-09T23:06:35.955Z,8.47
2023-01-09T23:09:04.019Z,8.30
2023-01-09T23:11:50.417Z,8.00
2023-01-09T23:14:19.040Z,9.30
2023-01-09T23:16:47.169Z,8.50
2023-01-09T23:19:16.847Z,8.87
2023-01-09T23:21:46.298Z,8.67
2023-01-09T23:24:16.556Z,8.50
2023-01-09T23:26:45.406Z,9.57
2023-01-09T23:29:15.236Z,9.40
2023-01-09T23:31:43.400Z,9.17
2023-01-09T23:34:18.127Z,10.00
2023-01-09T23:36:47.522Z,9.27
2023-01-09T23:39:15.832Z,9.40
2023-01-09T23:42:01.979Z,8.93
2023-01-09T23:44:30.704Z,8.50
2023-01-09T23:46:58.783Z,9.53
2023-01-09T23:49:28.201Z,9.33
2023-01-09T23:51:56.419Z,8.90
2023-01-09T23:54:24.503Z,8.67
2023-01-09T23:56:53.268Z,9.20
2023-01-09T23:59:21.344Z,9.07
